createdAt,value
2023-03-16T00:04:09.382Z,3.30
2023-03-16T00:09:11.110Z,3.40
2023-03-16T00:14:13.051Z,2.90
2023-03-16T00:19:14.806Z,3.20
2023-03-16T00:24:18.106Z,3.23
2023-03-16T00:29:19.758Z,3.93
2023-03-16T00:34:22.815Z,3.67
2023-03-16T00:39:24.537Z,3.43
2023-03-16T00:44:26.210Z,3.00
2023-03-16T00:49:27.889Z,3.20
2023-03-16T00:54:29.955Z,3.30
2023-03-16T00:59:31.610Z,3.30
2023-03-16T01:04:35.839Z,3.17
2023-03-16T01:09:38.390Z,3.80
2023-03-16T01:14:40.498Z,3.20
2023-03-16T01:19:43.379Z,3.67
2023-03-16T01:24:46.724Z,3.10
2023-03-16T01:29:48.386Z,3.13
2023-03-16T01:34:50.076Z,3.53
2023-03-16T01:39:51.759Z,3.43
2023-03-16T01:45:01.936Z,3.30
2023-03-16T01:50:05.316Z,3.50
2023-03-16T01:55:09.452Z,3.20
2023-03-16T02:00:20.955Z,3.37
2023-03-16T02:05:28.230Z,3.40
2023-03-16T02:10:31.029Z,2.77
2023-03-16T02:15:32.980Z,2.90
2023-03-16T02:20:50.464Z,2.83
2023-03-16T02:26:13.576Z,2.87
2023-03-16T02:31:19.477Z,2.80
2023-03-16T02:36:21.277Z,3.00
2023-03-16T02:41:23.073Z,3.00
2023-03-16T02:46:27.996Z,3.07
2023-03-16T02:51:30.517Z,3.10
2023-03-16T02:56:32.199Z,2.90
2023-03-16T03:01:35.010Z,2.83
2023-03-16T03:06:36.748Z,2.83
2023-03-16T03:11:38.967Z,2.73
2023-03-16T03:16:40.708Z,2.87
2023-03-16T03:21:42.483Z,3.03
2023-03-16T03:26:45.041Z,2.90
2023-03-16T03:31:47.576Z,2.93
2023-03-16T03:36:50.338Z,2.90
2023-03-16T03:41:54.815Z,2.80
2023-03-16T03:46:56.558Z,3.00
2023-03-16T03:51:59.234Z,2.60
2023-03-16T03:57:00.962Z,2.80
2023-03-16T04:02:02.713Z,3.00
2023-03-16T04:07:04.518Z,3.00
2023-03-16T04:12:06.654Z,2.90
2023-03-16T04:17:08.510Z,3.13
2023-03-16T04:22:10.333Z,3.10
2023-03-16T04:27:12.137Z,3.20
2023-03-16T04:32:13.880Z,3.10
2023-03-16T04:37:15.526Z,3.00
2023-03-16T04:42:17.243Z,3.37
2023-03-16T04:47:19.026Z,3.13
2023-03-16T04:52:20.833Z,3.20
2023-03-16T04:57:22.938Z,3.33
2023-03-16T05:02:24.794Z,3.20
2023-03-16T05:07:26.469Z,3.40
2023-03-16T05:12:28.144Z,3.93
2023-03-16T05:17:30.052Z,3.40
2023-03-16T05:22:31.914Z,3.40
2023-03-16T05:27:34.265Z,6.37
2023-03-16T05:32:35.994Z,8.40
2023-03-16T05:37:38.097Z,14.50
2023-03-16T05:42:39.830Z,16.13
2023-03-16T05:47:42.445Z,5.30
2023-03-16T05:52:45.935Z,9.27
2023-03-16T05:57:47.594Z,5.23
2023-03-16T06:02:53.539Z,5.17
2023-03-16T06:07:55.198Z,4.63
2023-03-16T06:12:58.486Z,4.83
2023-03-16T06:18:01.483Z,5.37
2023-03-16T06:23:04.361Z,6.90
2023-03-16T06:28:07.230Z,7.40
2023-03-16T06:33:09.014Z,17.13
2023-03-16T06:38:11.285Z,11.50
2023-03-16T06:43:13.262Z,8.13
2023-03-16T06:48:15.086Z,7.67
2023-03-16T06:53:16.729Z,7.73
2023-03-16T06:58:18.556Z,6.13
2023-03-16T07:03:20.355Z,6.33
2023-03-16T07:08:22.048Z,5.77
2023-03-16T07:13:23.938Z,4.87
2023-03-16T07:18:26.132Z,5.37
2023-03-16T07:23:27.974Z,5.93
2023-03-16T07:28:29.896Z,7.17
2023-03-16T07:33:33.291Z,7.47
2023-03-16T07:38:34.990Z,4.90
2023-03-16T07:43:36.698Z,3.50
2023-03-16T07:48:38.383Z,3.73
2023-03-16T07:53:40.660Z,3.80
2023-03-16T07:58:42.425Z,4.30
2023-03-16T08:03:44.861Z,4.83
2023-03-16T08:08:46.739Z,5.03
2023-03-16T08:13:50.558Z,5.80
2023-03-16T08:18:52.349Z,5.93
2023-03-16T08:23:54.242Z,6.10
2023-03-16T08:28:56.080Z,6.77
2023-03-16T08:33:57.932Z,6.70
2023-03-16T08:39:06.996Z,7.00
2023-03-16T08:44:10.761Z,6.20
2023-03-16T08:49:13.936Z,5.90
2023-03-16T08:54:16.019Z,6.00
2023-03-16T08:59:29.150Z,5.83
2023-03-16T09:04:32.488Z,6.10
2023-03-16T09:09:35.529Z,5.37
2023-03-16T09:14:38.497Z,4.90
2023-03-16T09:19:51.157Z,5.47
2023-03-16T09:24:54.744Z,5.80
2023-03-16T09:29:56.531Z,6.00
2023-03-16T09:34:58.234Z,6.10
2023-03-16T09:40:06.531Z,6.00
2023-03-16T09:45:22.850Z,6.00
2023-03-16T09:50:35.234Z,6.13
2023-03-16T09:55:48.785Z,6.40
2023-03-16T10:01:04.937Z,6.30
2023-03-16T10:06:12.378Z,5.30
2023-03-16T10:11:56.804Z,5.47
2023-03-16T10:17:23.949Z,6.00
2023-03-16T10:22:30.744Z,6.20
2023-03-16T10:27:38.317Z,5.83
2023-03-16T10:32:40.126Z,5.90
2023-03-16T10:37:41.867Z,5.63
2023-03-16T10:42:43.868Z,5.27
2023-03-16T10:47:45.542Z,5.50
2023-03-16T10:52:49.642Z,5.20
2023-03-16T10:57:56.184Z,5.20
2023-03-16T11:02:59.816Z,5.37
2023-03-16T11:08:11.968Z,5.13
2023-03-16T11:13:17.609Z,5.20
2023-03-16T11:18:43.660Z,5.17
2023-03-16T11:23:51.278Z,4.90
2023-03-16T11:29:17.799Z,4.80
2023-03-16T11:34:27.444Z,4.93
2023-03-16T11:39:53.760Z,4.23
2023-03-16T11:45:19.579Z,4.40
2023-03-16T11:50:45.665Z,4.43
2023-03-16T11:56:11.739Z,4.27
2023-03-16T12:01:16.186Z,4.10
2023-03-16T12:06:41.930Z,4.50
2023-03-16T12:12:02.837Z,4.67
2023-03-16T12:17:14.775Z,4.23
2023-03-16T12:22:29.487Z,4.67
2023-03-16T12:27:38.640Z,4.20
2023-03-16T12:33:00.737Z,4.20
2023-03-16T12:38:33.637Z,4.07
2023-03-16T12:44:03.041Z,4.10
2023-03-16T12:49:07.478Z,4.40
2023-03-16T12:54:23.963Z,4.40
2023-03-16T12:59:35.190Z,3.97
2023-03-16T13:04:42.324Z,3.40
2023-03-16T13:10:10.008Z,3.30
2023-03-16T13:15:17.927Z,3.53
2023-03-16T13:20:32.226Z,3.43
2023-03-16T13:25:46.283Z,3.60
2023-03-16T13:30:49.481Z,3.53
2023-03-16T13:35:52.905Z,3.50
2023-03-16T13:41:03.784Z,3.27
2023-03-16T13:46:21.336Z,3.90
2023-03-16T13:51:23.671Z,3.40
2023-03-16T13:56:28.863Z,3.10
2023-03-16T14:01:32.042Z,3.20
2023-03-16T14:06:35.323Z,3.33
2023-03-16T14:11:37.084Z,3.03
2023-03-16T14:16:38.771Z,3.33
2023-03-16T14:21:45.785Z,3.00
2023-03-16T14:26:48.322Z,3.13
2023-03-16T14:31:50.520Z,2.90
2023-03-16T14:36:52.848Z,3.10
2023-03-16T14:41:54.582Z,3.27
2023-03-16T14:46:57.430Z,3.40
2023-03-16T14:52:06.429Z,3.27
2023-03-16T14:57:16.981Z,2.87
2023-03-16T15:02:26.882Z,3.30
2023-03-16T15:07:32.887Z,3.17
2023-03-16T15:12:34.811Z,3.37
2023-03-16T15:17:36.649Z,3.33
2023-03-16T15:22:39.353Z,3.23
2023-03-16T15:27:41.633Z,3.50
2023-03-16T15:32:43.462Z,2.90
2023-03-16T15:37:45.706Z,3.23
2023-03-16T15:42:47.486Z,3.07
2023-03-16T15:47:52.101Z,3.30
2023-03-16T15:52:58.513Z,3.10
2023-03-16T15:58:02.379Z,3.10
2023-03-16T16:03:06.349Z,3.13
2023-03-16T16:08:08.198Z,3.60
2023-03-16T16:13:34.130Z,3.20
2023-03-16T16:18:43.582Z,3.40
2023-03-16T16:23:45.950Z,3.20
2023-03-16T16:28:48.200Z,3.47
2023-03-16T16:33:50.408Z,3.30
2023-03-16T16:38:52.193Z,3.23
2023-03-16T16:43:54.716Z,3.40
2023-03-16T16:49:01.819Z,4.00
2023-03-16T16:54:15.478Z,3.80
2023-03-16T16:59:19.641Z,3.40
2023-03-16T17:04:27.077Z,3.60
2023-03-16T17:09:30.285Z,3.30
2023-03-16T17:14:32.263Z,3.30
2023-03-16T17:19:34.092Z,4.07
2023-03-16T17:24:35.879Z,4.40
2023-03-16T17:29:37.647Z,4.80
2023-03-16T17:34:39.521Z,4.83
2023-03-16T17:39:41.619Z,7.23
2023-03-16T17:44:51.299Z,7.47
2023-03-16T17:49:53.711Z,7.20
2023-03-16T17:54:55.885Z,7.27
2023-03-16T17:59:58.838Z,8.07
2023-03-16T18:05:00.871Z,5.17
2023-03-16T18:10:02.708Z,5.83
2023-03-16T18:15:04.714Z,5.67
2023-03-16T18:20:20.632Z,5.03
2023-03-16T18:25:30.458Z,5.43
2023-03-16T18:30:32.910Z,5.33
2023-03-16T18:35:36.509Z,5.40
2023-03-16T18:40:40.109Z,7.77
2023-03-16T18:45:41.913Z,11.07
2023-03-16T18:50:43.736Z,6.80
2023-03-16T18:55:46.205Z,8.60
2023-03-16T19:00:57.056Z,9.57
2023-03-16T19:06:01.017Z,4.53
2023-03-16T19:11:04.511Z,8.40
2023-03-16T19:16:14.474Z,7.03
2023-03-16T19:21:18.596Z,4.93
2023-03-16T19:26:20.344Z,4.03
2023-03-16T19:31:26.167Z,12.40
2023-03-16T19:36:30.556Z,5.30
2023-03-16T19:41:37.621Z,5.27
2023-03-16T19:46:39.946Z,9.97
2023-03-16T19:51:41.678Z,8.43
2023-03-16T19:56:43.597Z,5.90
2023-03-16T20:01:45.553Z,5.90
2023-03-16T20:06:49.882Z,5.43
2023-03-16T20:11:52.119Z,5.00
2023-03-16T20:16:53.918Z,3.80
2023-03-16T20:21:55.798Z,3.30
2023-03-16T20:26:57.673Z,5.03
2023-03-16T20:32:01.241Z,5.00
2023-03-16T20:37:02.997Z,5.20
2023-03-16T20:42:04.763Z,4.87
2023-03-16T20:47:09.702Z,6.60
2023-03-16T20:52:31.725Z,3.80
2023-03-16T20:57:33.395Z,3.50
2023-03-16T21:02:35.691Z,2.80
2023-03-16T21:07:37.435Z,2.93
2023-03-16T21:12:43.323Z,4.40
2023-03-16T21:17:45.337Z,4.30
2023-03-16T21:22:47.075Z,3.40
2023-03-16T21:27:49.858Z,2.97
2023-03-16T21:32:52.751Z,3.00
2023-03-16T21:37:54.505Z,2.77
2023-03-16T21:42:56.224Z,3.20
2023-03-16T21:47:58.435Z,3.00
2023-03-16T21:53:01.135Z,2.70
2023-03-16T21:58:02.929Z,2.97
2023-03-16T22:03:49.410Z,3.20
2023-03-16T22:08:52.382Z,3.20
2023-03-16T22:13:55.539Z,2.97
2023-03-16T22:18:58.544Z,3.10
2023-03-16T22:24:01.363Z,2.90
2023-03-16T22:29:27.955Z,3.20
2023-03-16T22:34:55.805Z,2.90
2023-03-16T22:39:58.480Z,3.00
2023-03-16T22:45:00.987Z,4.00
2023-03-16T22:50:03.538Z,4.23
2023-03-16T22:55:07.070Z,3.17
2023-03-16T23:00:13.892Z,3.37
2023-03-16T23:05:24.612Z,2.83
2023-03-16T23:10:30.354Z,2.80
2023-03-16T23:15:38.244Z,3.00
2023-03-16T23:20:39.913Z,2.90
2023-03-16T23:25:46.292Z,2.93
2023-03-16T23:30:48.089Z,3.07
2023-03-16T23:35:50.097Z,3.00
2023-03-16T23:40:51.803Z,3.20
2023-03-16T23:45:53.562Z,3.10
2023-03-16T23:50:55.893Z,3.53
2023-03-16T23:55:57.934Z,3.03
